Roganville, Texas
Current Conditions -  °F | °C
As of 6:15 PM on Sunday 23 Nov 2014 (Local Time) from KJAS Reporting Station
Clear Clear  
Wind Chill: 62°   Ceiling: Unl
Heat Index: 62°   Visibility: 10mi
Dew Point: 57°   Wind: 0mph
Humidity: 85%   Direction: NA
Pressure: 29.59"   Gusts: NA
Location:  30.7133°N, 93.9985°W
Report Text: KJAS 240015Z AUTO 00000KT 10SM CLR 17/14 A2959 RMK AO2 T01650139
Loading
Personal Weather Stations






























Interactive Weather Map New forecast layout! Learn more

10-Day Weather Forecast

Advertisements
Track Severe Weather on mobile